sensor_id;sensor_type;location;lat;lon;timestamp;P1;durP1;ratioP1;P2;durP2;ratioP2
61144;SDS011;47026;51.208;3.288;2023-01-19T00:03:50;12.43;;;6.00;;
61144;SDS011;47026;51.208;3.288;2023-01-19T00:06:16;10.02;;;6.05;;
61144;SDS011;47026;51.208;3.288;2023-01-19T00:08:42;8.48;;;4.90;;
61144;SDS011;47026;51.208;3.288;2023-01-19T00:11:10;10.25;;;5.68;;
61144;SDS011;47026;51.208;3.288;2023-01-19T00:13:37;12.20;;;5.47;;
61144;SDS011;47026;51.208;3.288;2023-01-19T00:16:04;9.63;;;5.43;;
61144;SDS011;47026;51.208;3.288;2023-01-19T00:18:31;15.25;;;5.97;;
61144;SDS011;47026;51.208;3.288;2023-01-19T00:20:57;11.07;;;5.35;;
61144;SDS011;47026;51.208;3.288;2023-01-19T00:23:23;11.23;;;5.15;;
61144;SDS011;47026;51.208;3.288;2023-01-19T00:25:49;8.25;;;5.03;;
61144;SDS011;47026;51.208;3.288;2023-01-19T00:30:42;8.70;;;5.22;;
61144;SDS011;47026;51.208;3.288;2023-01-19T00:33:09;11.15;;;5.45;;
61144;SDS011;47026;51.208;3.288;2023-01-19T00:35:38;10.52;;;5.70;;
61144;SDS011;47026;51.208;3.288;2023-01-19T00:38:06;8.07;;;5.32;;
61144;SDS011;47026;51.208;3.288;2023-01-19T00:40:32;9.95;;;5.90;;
61144;SDS011;47026;51.208;3.288;2023-01-19T00:42:58;8.68;;;5.43;;
61144;SDS011;47026;51.208;3.288;2023-01-19T00:45:24;13.00;;;5.78;;
61144;SDS011;47026;51.208;3.288;2023-01-19T00:50:21;8.45;;;5.00;;
61144;SDS011;47026;51.208;3.288;2023-01-19T00:52:48;9.25;;;4.70;;
61144;SDS011;47026;51.208;3.288;2023-01-19T00:55:15;8.45;;;5.12;;
61144;SDS011;47026;51.208;3.288;2023-01-19T00:57:41;7.97;;;5.12;;
61144;SDS011;47026;51.208;3.288;2023-01-19T01:00:09;12.02;;;5.32;;
61144;SDS011;47026;51.208;3.288;2023-01-19T01:02:38;9.57;;;5.20;;
61144;SDS011;47026;51.208;3.288;2023-01-19T01:05:05;10.80;;;4.68;;
61144;SDS011;47026;51.208;3.288;2023-01-19T01:07:32;10.60;;;4.72;;
61144;SDS011;47026;51.208;3.288;2023-01-19T01:10:22;11.07;;;5.28;;
61144;SDS011;47026;51.208;3.288;2023-01-19T01:12:50;12.70;;;4.60;;
61144;SDS011;47026;51.208;3.288;2023-01-19T01:15:17;9.75;;;4.62;;
61144;SDS011;47026;51.208;3.288;2023-01-19T01:17:44;10.68;;;5.25;;
61144;SDS011;47026;51.208;3.288;2023-01-19T01:22:45;13.88;;;5.00;;
61144;SDS011;47026;51.208;3.288;2023-01-19T01:25:13;7.93;;;4.60;;
61144;SDS011;47026;51.208;3.288;2023-01-19T01:27:41;12.52;;;4.35;;
61144;SDS011;47026;51.208;3.288;2023-01-19T01:30:07;9.05;;;4.45;;
61144;SDS011;47026;51.208;3.288;2023-01-19T01:32:43;9.52;;;4.78;;
61144;SDS011;47026;51.208;3.288;2023-01-19T01:37:35;6.28;;;3.95;;
61144;SDS011;47026;51.208;3.288;2023-01-19T01:40:02;8.57;;;4.65;;
61144;SDS011;47026;51.208;3.288;2023-01-19T01:42:30;9.07;;;4.62;;
61144;SDS011;47026;51.208;3.288;2023-01-19T01:44:59;9.68;;;4.43;;
61144;SDS011;47026;51.208;3.288;2023-01-19T01:47:29;14.85;;;5.25;;
61144;SDS011;47026;51.208;3.288;2023-01-19T01:52:47;10.88;;;4.37;;
61144;SDS011;47026;51.208;3.288;2023-01-19T01:55:17;10.00;;;4.70;;
61144;SDS011;47026;51.208;3.288;2023-01-19T01:57:46;7.07;;;4.05;;
61144;SDS011;47026;51.208;3.288;2023-01-19T02:00:22;8.50;;;4.35;;
61144;SDS011;47026;51.208;3.288;2023-01-19T02:02:49;8.48;;;4.12;;
61144;SDS011;47026;51.208;3.288;2023-01-19T02:10:43;7.85;;;3.83;;
61144;SDS011;47026;51.208;3.288;2023-01-19T02:13:29;4.82;;;3.17;;
61144;SDS011;47026;51.208;3.288;2023-01-19T02:15:58;7.50;;;2.40;;
61144;SDS011;47026;51.208;3.288;2023-01-19T02:18:26;6.37;;;2.37;;
61144;SDS011;47026;51.208;3.288;2023-01-19T02:21:01;5.85;;;2.03;;
61144;SDS011;47026;51.208;3.288;2023-01-19T02:23:50;9.65;;;2.65;;
61144;SDS011;47026;51.208;3.288;2023-01-19T02:26:22;11.43;;;2.72;;
61144;SDS011;47026;51.208;3.288;2023-01-19T02:28:54;6.37;;;2.22;;
61144;SDS011;47026;51.208;3.288;2023-01-19T02:31:25;6.57;;;2.40;;
61144;SDS011;47026;51.208;3.288;2023-01-19T02:33:53;4.60;;;2.42;;
61144;SDS011;47026;51.208;3.288;2023-01-19T02:36:20;7.55;;;2.40;;
61144;SDS011;47026;51.208;3.288;2023-01-19T02:38:50;9.98;;;2.70;;
61144;SDS011;47026;51.208;3.288;2023-01-19T02:41:21;8.00;;;2.47;;
61144;SDS011;47026;51.208;3.288;2023-01-19T02:43:52;8.00;;;2.62;;
61144;SDS011;47026;51.208;3.288;2023-01-19T02:46:20;7.70;;;2.80;;
61144;SDS011;47026;51.208;3.288;2023-01-19T02:48:46;10.82;;;3.05;;
61144;SDS011;47026;51.208;3.288;2023-01-19T02:56:33;13.18;;;3.42;;
61144;SDS011;47026;51.208;3.288;2023-01-19T03:04:52;8.05;;;3.00;;
61144;SDS011;47026;51.208;3.288;2023-01-19T03:10:34;9.25;;;3.60;;
61144;SDS011;47026;51.208;3.288;2023-01-19T03:13:32;5.82;;;3.17;;
61144;SDS011;47026;51.208;3.288;2023-01-19T03:18:57;6.18;;;3.42;;
61144;SDS011;47026;51.208;3.288;2023-01-19T03:21:55;8.48;;;3.22;;
61144;SDS011;47026;51.208;3.288;2023-01-19T03:24:23;12.35;;;3.60;;
61144;SDS011;47026;51.208;3.288;2023-01-19T03:26:55;7.87;;;3.40;;
61144;SDS011;47026;51.208;3.288;2023-01-19T03:29:29;6.72;;;3.28;;
61144;SDS011;47026;51.208;3.288;2023-01-19T03:31:59;8.55;;;2.83;;
61144;SDS011;47026;51.208;3.288;2023-01-19T03:34:30;9.95;;;3.55;;
61144;SDS011;47026;51.208;3.288;2023-01-19T03:36:58;8.15;;;3.08;;
61144;SDS011;47026;51.208;3.288;2023-01-19T03:39:27;7.75;;;3.25;;
61144;SDS011;47026;51.208;3.288;2023-01-19T03:41:56;11.10;;;3.30;;
61144;SDS011;47026;51.208;3.288;2023-01-19T03:44:28;10.30;;;3.15;;
61144;SDS011;47026;51.208;3.288;2023-01-19T03:46:57;6.35;;;2.70;;
61144;SDS011;47026;51.208;3.288;2023-01-19T03:49:24;6.97;;;2.40;;
61144;SDS011;47026;51.208;3.288;2023-01-19T03:51:50;10.13;;;2.80;;
61144;SDS011;47026;51.208;3.288;2023-01-19T03:54:20;8.73;;;2.72;;
61144;SDS011;47026;51.208;3.288;2023-01-19T03:56:47;7.90;;;2.87;;
61144;SDS011;47026;51.208;3.288;2023-01-19T03:59:13;10.68;;;2.87;;
61144;SDS011;47026;51.208;3.288;2023-01-19T04:01:41;9.93;;;2.67;;
61144;SDS011;47026;51.208;3.288;2023-01-19T04:04:07;10.35;;;2.60;;
61144;SDS011;47026;51.208;3.288;2023-01-19T04:06:33;6.50;;;2.80;;
61144;SDS011;47026;51.208;3.288;2023-01-19T04:11:25;10.38;;;2.60;;
61144;SDS011;47026;51.208;3.288;2023-01-19T04:13:51;12.73;;;3.47;;
61144;SDS011;47026;51.208;3.288;2023-01-19T04:16:17;13.52;;;3.72;;
61144;SDS011;47026;51.208;3.288;2023-01-19T04:18:45;14.55;;;2.95;;
61144;SDS011;47026;51.208;3.288;2023-01-19T04:21:11;12.10;;;3.25;;
61144;SDS011;47026;51.208;3.288;2023-01-19T04:23:37;5.40;;;2.53;;
61144;SDS011;47026;51.208;3.288;2023-01-19T04:26:04;9.88;;;2.72;;
61144;SDS011;47026;51.208;3.288;2023-01-19T04:28:31;6.82;;;2.95;;
61144;SDS011;47026;51.208;3.288;2023-01-19T04:30:58;10.55;;;3.15;;
61144;SDS011;47026;51.208;3.288;2023-01-19T04:33:25;14.80;;;2.95;;
61144;SDS011;47026;51.208;3.288;2023-01-19T04:35:52;9.85;;;2.70;;
61144;SDS011;47026;51.208;3.288;2023-01-19T04:38:19;13.57;;;3.33;;
61144;SDS011;47026;51.208;3.288;2023-01-19T04:40:47;12.05;;;2.95;;
61144;SDS011;47026;51.208;3.288;2023-01-19T04:43:13;11.18;;;3.62;;
61144;SDS011;47026;51.208;3.288;2023-01-19T04:45:38;16.17;;;3.55;;
61144;SDS011;47026;51.208;3.288;2023-01-19T04:48:04;11.25;;;3.30;;
61144;SDS011;47026;51.208;3.288;2023-01-19T04:52:57;5.32;;;2.55;;
61144;SDS011;47026;51.208;3.288;2023-01-19T04:55:23;11.95;;;2.67;;
61144;SDS011;47026;51.208;3.288;2023-01-19T04:57:49;8.63;;;3.10;;
61144;SDS011;47026;51.208;3.288;2023-01-19T05:02:41;13.00;;;2.60;;
61144;SDS011;47026;51.208;3.288;2023-01-19T05:05:09;11.40;;;2.90;;
61144;SDS011;47026;51.208;3.288;2023-01-19T05:07:36;16.08;;;2.87;;
61144;SDS011;47026;51.208;3.288;2023-01-19T05:10:02;12.40;;;3.10;;
61144;SDS011;47026;51.208;3.288;2023-01-19T05:12:28;13.77;;;3.10;;
61144;SDS011;47026;51.208;3.288;2023-01-19T05:14:54;9.30;;;2.85;;
61144;SDS011;47026;51.208;3.288;2023-01-19T05:17:20;11.12;;;3.62;;
61144;SDS011;47026;51.208;3.288;2023-01-19T05:19:46;16.40;;;3.05;;
61144;SDS011;47026;51.208;3.288;2023-01-19T05:24:39;13.02;;;2.95;;
61144;SDS011;47026;51.208;3.288;2023-01-19T05:27:05;8.38;;;3.30;;
61144;SDS011;47026;51.208;3.288;2023-01-19T05:31:57;10.75;;;2.72;;
61144;SDS011;47026;51.208;3.288;2023-01-19T05:34:23;12.82;;;2.78;;
61144;SDS011;47026;51.208;3.288;2023-01-19T05:36:49;11.70;;;3.72;;
61144;SDS011;47026;51.208;3.288;2023-01-19T05:39:15;8.05;;;2.92;;
61144;SDS011;47026;51.208;3.288;2023-01-19T05:44:09;14.73;;;3.80;;
61144;SDS011;47026;51.208;3.288;2023-01-19T05:46:36;8.55;;;3.35;;
61144;SDS011;47026;51.208;3.288;2023-01-19T05:49:02;12.77;;;3.22;;
61144;SDS011;47026;51.208;3.288;2023-01-19T05:51:29;11.45;;;3.50;;
61144;SDS011;47026;51.208;3.288;2023-01-19T05:54:05;9.82;;;3.65;;
61144;SDS011;47026;51.208;3.288;2023-01-19T05:56:32;13.48;;;4.40;;
61144;SDS011;47026;51.208;3.288;2023-01-19T05:58:58;18.27;;;3.92;;
61144;SDS011;47026;51.208;3.288;2023-01-19T06:01:24;16.52;;;4.70;;
61144;SDS011;47026;51.208;3.288;2023-01-19T06:03:51;10.25;;;3.87;;
61144;SDS011;47026;51.208;3.288;2023-01-19T06:06:17;13.48;;;4.97;;
61144;SDS011;47026;51.208;3.288;2023-01-19T06:11:09;10.60;;;4.10;;
61144;SDS011;47026;51.208;3.288;2023-01-19T06:13:36;17.77;;;5.65;;
61144;SDS011;47026;51.208;3.288;2023-01-19T06:16:04;12.85;;;5.03;;
61144;SDS011;47026;51.208;3.288;2023-01-19T06:18:30;15.73;;;5.37;;
61144;SDS011;47026;51.208;3.288;2023-01-19T06:20:56;13.98;;;5.18;;
61144;SDS011;47026;51.208;3.288;2023-01-19T06:23:25;18.95;;;4.55;;
61144;SDS011;47026;51.208;3.288;2023-01-19T06:25:53;15.32;;;5.15;;
61144;SDS011;47026;51.208;3.288;2023-01-19T06:28:19;14.95;;;5.25;;
61144;SDS011;47026;51.208;3.288;2023-01-19T06:30:49;10.70;;;5.20;;
61144;SDS011;47026;51.208;3.288;2023-01-19T06:33:16;12.73;;;5.10;;
61144;SDS011;47026;51.208;3.288;2023-01-19T06:35:44;14.75;;;5.65;;
61144;SDS011;47026;51.208;3.288;2023-01-19T06:38:11;12.73;;;5.22;;
61144;SDS011;47026;51.208;3.288;2023-01-19T06:40:38;13.30;;;5.65;;
61144;SDS011;47026;51.208;3.288;2023-01-19T06:43:05;13.48;;;5.53;;
61144;SDS011;47026;51.208;3.288;2023-01-19T06:45:31;11.18;;;5.35;;
61144;SDS011;47026;51.208;3.288;2023-01-19T06:47:57;14.68;;;5.60;;
61144;SDS011;47026;51.208;3.288;2023-01-19T06:50:23;11.95;;;6.45;;
61144;SDS011;47026;51.208;3.288;2023-01-19T06:52:49;15.13;;;6.57;;
61144;SDS011;47026;51.208;3.288;2023-01-19T06:55:15;13.18;;;6.68;;
61144;SDS011;47026;51.208;3.288;2023-01-19T07:00:09;21.40;;;6.95;;
61144;SDS011;47026;51.208;3.288;2023-01-19T07:02:36;16.77;;;6.80;;
61144;SDS011;47026;51.208;3.288;2023-01-19T07:05:09;18.98;;;7.00;;
61144;SDS011;47026;51.208;3.288;2023-01-19T07:07:38;13.95;;;6.62;;
61144;SDS011;47026;51.208;3.288;2023-01-19T07:10:08;16.98;;;6.35;;
61144;SDS011;47026;51.208;3.288;2023-01-19T07:12:39;19.23;;;7.07;;
61144;SDS011;47026;51.208;3.288;2023-01-19T07:17:31;15.40;;;7.05;;
61144;SDS011;47026;51.208;3.288;2023-01-19T07:22:23;15.88;;;7.03;;
61144;SDS011;47026;51.208;3.288;2023-01-19T07:24:49;14.95;;;7.78;;
61144;SDS011;47026;51.208;3.288;2023-01-19T07:27:15;20.42;;;7.50;;
61144;SDS011;47026;51.208;3.288;2023-01-19T07:29:41;20.25;;;7.28;;
61144;SDS011;47026;51.208;3.288;2023-01-19T07:32:07;12.75;;;7.12;;
61144;SDS011;47026;51.208;3.288;2023-01-19T07:36:59;17.62;;;7.60;;
61144;SDS011;47026;51.208;3.288;2023-01-19T07:39:26;14.07;;;6.95;;
61144;SDS011;47026;51.208;3.288;2023-01-19T07:44:17;16.70;;;7.05;;
61144;SDS011;47026;51.208;3.288;2023-01-19T07:46:43;20.92;;;8.02;;
61144;SDS011;47026;51.208;3.288;2023-01-19T07:49:09;20.37;;;7.87;;
61144;SDS011;47026;51.208;3.288;2023-01-19T07:51:36;19.35;;;7.53;;
61144;SDS011;47026;51.208;3.288;2023-01-19T07:56:27;17.73;;;8.43;;
61144;SDS011;47026;51.208;3.288;2023-01-19T07:58:55;15.57;;;8.55;;
61144;SDS011;47026;51.208;3.288;2023-01-19T08:01:21;17.62;;;8.75;;
61144;SDS011;47026;51.208;3.288;2023-01-19T08:06:20;15.88;;;8.23;;
61144;SDS011;47026;51.208;3.288;2023-01-19T08:08:48;20.75;;;8.00;;
61144;SDS011;47026;51.208;3.288;2023-01-19T08:11:14;18.17;;;7.95;;
61144;SDS011;47026;51.208;3.288;2023-01-19T08:13:41;17.87;;;7.82;;
61144;SDS011;47026;51.208;3.288;2023-01-19T08:16:07;17.40;;;8.32;;
61144;SDS011;47026;51.208;3.288;2023-01-19T08:18:33;20.85;;;7.75;;
61144;SDS011;47026;51.208;3.288;2023-01-19T08:23:26;17.12;;;7.97;;
61144;SDS011;47026;51.208;3.288;2023-01-19T08:25:52;15.85;;;7.57;;
61144;SDS011;47026;51.208;3.288;2023-01-19T08:28:18;16.65;;;7.18;;
61144;SDS011;47026;51.208;3.288;2023-01-19T08:30:44;21.30;;;8.80;;
61144;SDS011;47026;51.208;3.288;2023-01-19T08:33:18;12.93;;;6.85;;
61144;SDS011;47026;51.208;3.288;2023-01-19T08:35:47;14.32;;;7.62;;
61144;SDS011;47026;51.208;3.288;2023-01-19T08:38:14;14.80;;;7.30;;
61144;SDS011;47026;51.208;3.288;2023-01-19T08:40:41;21.95;;;7.30;;
61144;SDS011;47026;51.208;3.288;2023-01-19T08:43:08;18.77;;;7.15;;
61144;SDS011;47026;51.208;3.288;2023-01-19T08:45:37;20.15;;;8.30;;
61144;SDS011;47026;51.208;3.288;2023-01-19T08:48:10;16.70;;;7.15;;
61144;SDS011;47026;51.208;3.288;2023-01-19T08:50:37;14.93;;;7.47;;
61144;SDS011;47026;51.208;3.288;2023-01-19T08:53:04;20.77;;;7.93;;
61144;SDS011;47026;51.208;3.288;2023-01-19T08:55:33;18.23;;;8.13;;
61144;SDS011;47026;51.208;3.288;2023-01-19T08:58:00;20.02;;;8.05;;
61144;SDS011;47026;51.208;3.288;2023-01-19T09:00:31;22.65;;;8.85;;
61144;SDS011;47026;51.208;3.288;2023-01-19T09:02:58;18.42;;;8.35;;
61144;SDS011;47026;51.208;3.288;2023-01-19T09:05:28;19.75;;;7.78;;
61144;SDS011;47026;51.208;3.288;2023-01-19T09:07:56;17.60;;;8.07;;
61144;SDS011;47026;51.208;3.288;2023-01-19T09:10:22;15.77;;;7.07;;
61144;SDS011;47026;51.208;3.288;2023-01-19T09:12:47;22.02;;;8.82;;
61144;SDS011;47026;51.208;3.288;2023-01-19T09:15:14;14.77;;;7.15;;
61144;SDS011;47026;51.208;3.288;2023-01-19T09:17:40;14.98;;;6.22;;
61144;SDS011;47026;51.208;3.288;2023-01-19T09:22:33;13.50;;;6.18;;
61144;SDS011;47026;51.208;3.288;2023-01-19T09:24:58;16.33;;;5.90;;
61144;SDS011;47026;51.208;3.288;2023-01-19T09:29:50;13.88;;;6.15;;
61144;SDS011;47026;51.208;3.288;2023-01-19T09:32:18;12.75;;;5.70;;
61144;SDS011;47026;51.208;3.288;2023-01-19T09:34:45;12.68;;;5.55;;
61144;SDS011;47026;51.208;3.288;2023-01-19T09:37:11;13.55;;;5.10;;
61144;SDS011;47026;51.208;3.288;2023-01-19T09:39:37;13.85;;;5.70;;
61144;SDS011;47026;51.208;3.288;2023-01-19T09:44:38;12.48;;;5.32;;
61144;SDS011;47026;51.208;3.288;2023-01-19T09:47:13;10.55;;;5.18;;
61144;SDS011;47026;51.208;3.288;2023-01-19T09:49:44;15.00;;;5.72;;
61144;SDS011;47026;51.208;3.288;2023-01-19T09:52:15;13.15;;;5.93;;
61144;SDS011;47026;51.208;3.288;2023-01-19T09:54:46;13.80;;;6.10;;
61144;SDS011;47026;51.208;3.288;2023-01-19T09:57:17;12.65;;;5.80;;
61144;SDS011;47026;51.208;3.288;2023-01-19T09:59:44;16.98;;;6.12;;
61144;SDS011;47026;51.208;3.288;2023-01-19T10:02:21;16.80;;;6.10;;
61144;SDS011;47026;51.208;3.288;2023-01-19T10:18:05;10.77;;;5.85;;
61144;SDS011;47026;51.208;3.288;2023-01-19T10:23:16;14.25;;;4.82;;
61144;SDS011;47026;51.208;3.288;2023-01-19T10:25:46;14.82;;;6.15;;
61144;SDS011;47026;51.208;3.288;2023-01-19T10:30:38;11.50;;;5.85;;
61144;SDS011;47026;51.208;3.288;2023-01-19T10:33:07;12.27;;;6.37;;
61144;SDS011;47026;51.208;3.288;2023-01-19T10:35:37;15.18;;;6.32;;
61144;SDS011;47026;51.208;3.288;2023-01-19T10:40:36;13.93;;;6.47;;
61144;SDS011;47026;51.208;3.288;2023-01-19T10:46:17;18.63;;;6.53;;
61144;SDS011;47026;51.208;3.288;2023-01-19T10:48:54;13.43;;;7.25;;
61144;SDS011;47026;51.208;3.288;2023-01-19T10:51:20;11.75;;;6.60;;
61144;SDS011;47026;51.208;3.288;2023-01-19T10:53:54;16.50;;;7.40;;
61144;SDS011;47026;51.208;3.288;2023-01-19T10:56:22;20.05;;;7.35;;
61144;SDS011;47026;51.208;3.288;2023-01-19T10:58:53;16.27;;;6.80;;
61144;SDS011;47026;51.208;3.288;2023-01-19T11:03:50;12.20;;;6.07;;
61144;SDS011;47026;51.208;3.288;2023-01-19T11:06:19;11.80;;;6.47;;
61144;SDS011;47026;51.208;3.288;2023-01-19T11:08:47;14.30;;;6.43;;
61144;SDS011;47026;51.208;3.288;2023-01-19T11:11:16;13.70;;;5.85;;
61144;SDS011;47026;51.208;3.288;2023-01-19T11:13:43;13.68;;;6.12;;
61144;SDS011;47026;51.208;3.288;2023-01-19T11:16:24;11.57;;;5.95;;
61144;SDS011;47026;51.208;3.288;2023-01-19T11:18:53;11.75;;;5.78;;
61144;SDS011;47026;51.208;3.288;2023-01-19T11:21:22;9.65;;;4.97;;
61144;SDS011;47026;51.208;3.288;2023-01-19T11:23:54;9.88;;;5.12;;
61144;SDS011;47026;51.208;3.288;2023-01-19T11:26:55;10.80;;;4.62;;
61144;SDS011;47026;51.208;3.288;2023-01-19T11:29:24;13.23;;;5.15;;
61144;SDS011;47026;51.208;3.288;2023-01-19T11:31:51;8.95;;;4.50;;
61144;SDS011;47026;51.208;3.288;2023-01-19T11:34:22;10.23;;;4.65;;
61144;SDS011;47026;51.208;3.288;2023-01-19T11:37:00;11.27;;;4.95;;
61144;SDS011;47026;51.208;3.288;2023-01-19T11:39:29;11.70;;;5.18;;
61144;SDS011;47026;51.208;3.288;2023-01-19T11:42:00;14.13;;;5.30;;
61144;SDS011;47026;51.208;3.288;2023-01-19T11:46:58;15.23;;;4.90;;
61144;SDS011;47026;51.208;3.288;2023-01-19T11:49:37;11.90;;;4.97;;
61144;SDS011;47026;51.208;3.288;2023-01-19T11:57:48;8.48;;;4.05;;
61144;SDS011;47026;51.208;3.288;2023-01-19T12:03:07;13.68;;;4.20;;
61144;SDS011;47026;51.208;3.288;2023-01-19T12:06:08;10.32;;;3.92;;
61144;SDS011;47026;51.208;3.288;2023-01-19T12:08:44;11.60;;;3.92;;
61144;SDS011;47026;51.208;3.288;2023-01-19T12:11:36;8.45;;;3.50;;
61144;SDS011;47026;51.208;3.288;2023-01-19T12:14:53;8.68;;;3.42;;
61144;SDS011;47026;51.208;3.288;2023-01-19T12:16:55;8.80;;;2.87;;
61144;SDS011;47026;51.208;3.288;2023-01-19T12:19:25;8.30;;;3.50;;
61144;SDS011;47026;51.208;3.288;2023-01-19T12:22:01;11.57;;;3.20;;
61144;SDS011;47026;51.208;3.288;2023-01-19T12:24:31;7.62;;;3.40;;
61144;SDS011;47026;51.208;3.288;2023-01-19T12:27:23;12.57;;;3.92;;
61144;SDS011;47026;51.208;3.288;2023-01-19T12:30:16;7.75;;;3.20;;
61144;SDS011;47026;51.208;3.288;2023-01-19T12:32:43;9.30;;;3.80;;
61144;SDS011;47026;51.208;3.288;2023-01-19T12:37:53;7.05;;;3.30;;
61144;SDS011;47026;51.208;3.288;2023-01-19T12:42:45;8.38;;;3.25;;
61144;SDS011;47026;51.208;3.288;2023-01-19T12:45:19;10.10;;;3.33;;
61144;SDS011;47026;51.208;3.288;2023-01-19T12:47:50;10.35;;;3.85;;
61144;SDS011;47026;51.208;3.288;2023-01-19T12:50:17;12.32;;;3.95;;
61144;SDS011;47026;51.208;3.288;2023-01-19T12:52:57;12.80;;;4.07;;
61144;SDS011;47026;51.208;3.288;2023-01-19T12:55:27;9.32;;;4.03;;
61144;SDS011;47026;51.208;3.288;2023-01-19T12:58:06;11.10;;;4.60;;
61144;SDS011;47026;51.208;3.288;2023-01-19T13:00:39;11.00;;;4.20;;
61144;SDS011;47026;51.208;3.288;2023-01-19T13:21:28;9.27;;;3.55;;
61144;SDS011;47026;51.208;3.288;2023-01-19T13:23:57;7.12;;;1.70;;
61144;SDS011;47026;51.208;3.288;2023-01-19T13:26:26;8.75;;;2.00;;
61144;SDS011;47026;51.208;3.288;2023-01-19T13:28:55;9.35;;;1.95;;
61144;SDS011;47026;51.208;3.288;2023-01-19T13:31:42;6.40;;;2.10;;
61144;SDS011;47026;51.208;3.288;2023-01-19T13:34:17;7.05;;;2.08;;
61144;SDS011;47026;51.208;3.288;2023-01-19T13:36:48;5.43;;;1.85;;
61144;SDS011;47026;51.208;3.288;2023-01-19T13:39:23;4.45;;;1.90;;
61144;SDS011;47026;51.208;3.288;2023-01-19T13:42:00;8.48;;;2.42;;
61144;SDS011;47026;51.208;3.288;2023-01-19T13:44:36;6.68;;;1.40;;
61144;SDS011;47026;51.208;3.288;2023-01-19T13:47:09;6.97;;;1.62;;
61144;SDS011;47026;51.208;3.288;2023-01-19T13:49:41;3.12;;;1.40;;
61144;SDS011;47026;51.208;3.288;2023-01-19T13:52:13;4.10;;;1.35;;
61144;SDS011;47026;51.208;3.288;2023-01-19T13:55:01;3.37;;;1.65;;
61144;SDS011;47026;51.208;3.288;2023-01-19T13:57:41;8.20;;;1.60;;
61144;SDS011;47026;51.208;3.288;2023-01-19T14:05:24;8.13;;;1.77;;
61144;SDS011;47026;51.208;3.288;2023-01-19T14:10:25;4.40;;;1.73;;
61144;SDS011;47026;51.208;3.288;2023-01-19T14:12:58;6.75;;;1.70;;
61144;SDS011;47026;51.208;3.288;2023-01-19T14:15:26;6.47;;;1.67;;
61144;SDS011;47026;51.208;3.288;2023-01-19T14:18:06;10.25;;;2.12;;
61144;SDS011;47026;51.208;3.288;2023-01-19T14:21:02;8.77;;;2.30;;
61144;SDS011;47026;51.208;3.288;2023-01-19T14:23:44;7.22;;;2.00;;
61144;SDS011;47026;51.208;3.288;2023-01-19T14:29:06;4.78;;;1.75;;
61144;SDS011;47026;51.208;3.288;2023-01-19T14:31:43;7.60;;;2.10;;
61144;SDS011;47026;51.208;3.288;2023-01-19T14:37:15;4.25;;;1.95;;
61144;SDS011;47026;51.208;3.288;2023-01-19T14:39:57;13.73;;;2.60;;
61144;SDS011;47026;51.208;3.288;2023-01-19T14:42:36;4.18;;;2.05;;
61144;SDS011;47026;51.208;3.288;2023-01-19T14:45:03;3.35;;;2.33;;
61144;SDS011;47026;51.208;3.288;2023-01-19T14:47:39;6.07;;;2.35;;
61144;SDS011;47026;51.208;3.288;2023-01-19T14:50:21;7.37;;;2.10;;
61144;SDS011;47026;51.208;3.288;2023-01-19T14:53:11;6.07;;;2.62;;
61144;SDS011;47026;51.208;3.288;2023-01-19T14:55:49;7.43;;;1.87;;
61144;SDS011;47026;51.208;3.288;2023-01-19T14:58:20;4.65;;;1.95;;
61144;SDS011;47026;51.208;3.288;2023-01-19T15:00:49;7.93;;;2.25;;
61144;SDS011;47026;51.208;3.288;2023-01-19T15:03:19;11.12;;;2.58;;
61144;SDS011;47026;51.208;3.288;2023-01-19T15:05:46;6.43;;;2.53;;
61144;SDS011;47026;51.208;3.288;2023-01-19T15:08:14;7.05;;;1.83;;
61144;SDS011;47026;51.208;3.288;2023-01-19T15:10:42;5.62;;;2.08;;
61144;SDS011;47026;51.208;3.288;2023-01-19T15:13:19;3.83;;;2.03;;
61144;SDS011;47026;51.208;3.288;2023-01-19T15:15:47;3.55;;;1.83;;
61144;SDS011;47026;51.208;3.288;2023-01-19T15:18:18;6.32;;;2.00;;
61144;SDS011;47026;51.208;3.288;2023-01-19T15:20:50;4.93;;;1.90;;
61144;SDS011;47026;51.208;3.288;2023-01-19T15:23:19;3.83;;;1.70;;
61144;SDS011;47026;51.208;3.288;2023-01-19T15:25:45;7.25;;;1.95;;
61144;SDS011;47026;51.208;3.288;2023-01-19T15:28:12;10.00;;;2.30;;
61144;SDS011;47026;51.208;3.288;2023-01-19T15:30:40;8.48;;;2.17;;
61144;SDS011;47026;51.208;3.288;2023-01-19T15:33:09;11.23;;;2.45;;
61144;SDS011;47026;51.208;3.288;2023-01-19T15:35:42;9.23;;;3.28;;
61144;SDS011;47026;51.208;3.288;2023-01-19T15:38:08;28.00;;;14.05;;
61144;SDS011;47026;51.208;3.288;2023-01-19T15:40:34;8.10;;;2.50;;
61144;SDS011;47026;51.208;3.288;2023-01-19T15:43:00;9.73;;;2.75;;
61144;SDS011;47026;51.208;3.288;2023-01-19T15:45:29;9.52;;;3.17;;
61144;SDS011;47026;51.208;3.288;2023-01-19T15:48:01;9.00;;;2.90;;
61144;SDS011;47026;51.208;3.288;2023-01-19T15:50:32;7.85;;;2.20;;
61144;SDS011;47026;51.208;3.288;2023-01-19T15:53:01;4.50;;;2.25;;
61144;SDS011;47026;51.208;3.288;2023-01-19T15:55:27;4.55;;;2.33;;
61144;SDS011;47026;51.208;3.288;2023-01-19T15:57:53;3.20;;;1.77;;
61144;SDS011;47026;51.208;3.288;2023-01-19T16:00:25;6.12;;;2.17;;
61144;SDS011;47026;51.208;3.288;2023-01-19T16:02:52;3.92;;;1.67;;
61144;SDS011;47026;51.208;3.288;2023-01-19T16:07:44;7.70;;;2.37;;
61144;SDS011;47026;51.208;3.288;2023-01-19T16:10:10;5.00;;;2.10;;
61144;SDS011;47026;51.208;3.288;2023-01-19T16:12:37;5.15;;;2.05;;
61144;SDS011;47026;51.208;3.288;2023-01-19T16:15:03;7.03;;;2.33;;
61144;SDS011;47026;51.208;3.288;2023-01-19T16:17:29;7.87;;;2.10;;
61144;SDS011;47026;51.208;3.288;2023-01-19T16:19:55;3.45;;;1.80;;
61144;SDS011;47026;51.208;3.288;2023-01-19T16:22:21;9.10;;;3.37;;
61144;SDS011;47026;51.208;3.288;2023-01-19T16:24:47;7.35;;;2.30;;
61144;SDS011;47026;51.208;3.288;2023-01-19T16:27:13;5.93;;;2.58;;
61144;SDS011;47026;51.208;3.288;2023-01-19T16:29:39;9.18;;;2.55;;
61144;SDS011;47026;51.208;3.288;2023-01-19T16:32:05;6.30;;;2.17;;
61144;SDS011;47026;51.208;3.288;2023-01-19T16:34:30;8.75;;;2.25;;
61144;SDS011;47026;51.208;3.288;2023-01-19T16:39:22;10.30;;;2.47;;
61144;SDS011;47026;51.208;3.288;2023-01-19T16:41:48;8.27;;;2.45;;
61144;SDS011;47026;51.208;3.288;2023-01-19T16:44:15;6.25;;;2.20;;
61144;SDS011;47026;51.208;3.288;2023-01-19T16:46:42;6.30;;;2.60;;
61144;SDS011;47026;51.208;3.288;2023-01-19T16:49:11;8.82;;;3.83;;
61144;SDS011;47026;51.208;3.288;2023-01-19T16:51:40;11.02;;;5.68;;
61144;SDS011;47026;51.208;3.288;2023-01-19T16:54:06;8.50;;;5.12;;
61144;SDS011;47026;51.208;3.288;2023-01-19T16:56:36;7.43;;;3.15;;
61144;SDS011;47026;51.208;3.288;2023-01-19T17:01:28;24.73;;;9.95;;
61144;SDS011;47026;51.208;3.288;2023-01-19T17:03:54;10.32;;;4.30;;
61144;SDS011;47026;51.208;3.288;2023-01-19T17:06:21;24.92;;;11.50;;
61144;SDS011;47026;51.208;3.288;2023-01-19T17:08:48;9.73;;;3.72;;
61144;SDS011;47026;51.208;3.288;2023-01-19T17:11:16;14.52;;;5.07;;
61144;SDS011;47026;51.208;3.288;2023-01-19T17:13:47;5.40;;;3.03;;
61144;SDS011;47026;51.208;3.288;2023-01-19T17:16:16;10.07;;;3.70;;
61144;SDS011;47026;51.208;3.288;2023-01-19T17:21:08;5.57;;;2.80;;
61144;SDS011;47026;51.208;3.288;2023-01-19T17:23:35;7.05;;;3.10;;
61144;SDS011;47026;51.208;3.288;2023-01-19T17:26:05;5.53;;;2.80;;
61144;SDS011;47026;51.208;3.288;2023-01-19T17:28:31;6.70;;;3.03;;
61144;SDS011;47026;51.208;3.288;2023-01-19T17:31:02;6.40;;;3.45;;
61144;SDS011;47026;51.208;3.288;2023-01-19T17:33:32;5.95;;;3.40;;
61144;SDS011;47026;51.208;3.288;2023-01-19T17:36:02;8.02;;;3.87;;
61144;SDS011;47026;51.208;3.288;2023-01-19T17:38:28;13.18;;;4.32;;
61144;SDS011;47026;51.208;3.288;2023-01-19T17:40:54;7.43;;;4.82;;